Time;durP1;ratioP1;P1;durP2;ratioP2;P2;SDS_P1;SDS_P2;PMS_P1;PMS_P2;Temp;Humidity;BMP_temperature;BMP_pressure;BME280_temperature;BME280_humidity;BME280_pressure;Samples;Min_cycle;Max_cycle;Signal;HPM_P1;HPM_P2
2023/05/05 00:01:09;;;;;;;2.65;1.08;;;15.40;46.00;;;;;;6151006;23;20019;-76
2023/05/05 00:03:37;;;;;;;1.30;1.20;;;15.40;46.10;;;;;;6177769;23;20915;-77
2023/05/05 00:06:04;;;;;;;1.30;1.13;;;15.30;46.10;;;;;;6179055;23;20017;-76
2023/05/05 00:08:30;;;;;;;2.00;1.40;;;15.30;46.10;;;;;;6179345;23;20032;-75
2023/05/05 00:10:56;;;;;;;1.38;1.27;;;15.30;46.00;;;;;;6177638;23;20025;-76
2023/05/05 00:13:23;;;;;;;2.33;1.40;;;15.20;46.00;;;;;;6179744;23;20048;-76
2023/05/05 00:15:50;;;;;;;1.60;1.38;;;15.30;46.20;;;;;;6178042;23;20357;-75
2023/05/05 00:18:17;;;;;;;2.10;0.80;;;15.30;46.30;;;;;;6179409;23;20790;-75
2023/05/05 00:20:46;;;;;;;0.90;0.90;;;15.20;46.30;;;;;;6179826;23;20052;-75
2023/05/05 00:23:12;;;;;;;1.45;1.00;;;15.20;46.30;;;;;;6179570;23;20027;-75
2023/05/05 00:25:38;;;;;;;2.78;1.10;;;15.20;46.30;;;;;;6180323;23;20017;-75
2023/05/05 00:28:04;;;;;;;2.58;1.00;;;15.20;46.10;;;;;;6180819;23;20072;-75
2023/05/05 00:30:30;;;;;;;3.38;1.50;;;15.20;46.10;;;;;;6181104;23;20021;-75
2023/05/05 00:32:56;;;;;;;2.38;1.20;;;15.20;46.00;;;;;;6181154;23;20440;-75
2023/05/05 00:35:22;;;;;;;4.40;1.10;;;15.20;46.20;;;;;;6154888;23;20041;-75
2023/05/05 00:37:48;;;;;;;3.50;1.40;;;15.20;46.20;;;;;;6180877;23;20445;-74
2023/05/05 00:40:15;;;;;;;1.50;1.30;;;15.20;46.30;;;;;;6154813;23;20017;-74
2023/05/05 00:42:46;;;;;;;1.55;1.20;;;15.10;46.40;;;;;;6181039;23;20028;-74
2023/05/05 00:45:13;;;;;;;4.22;1.30;;;15.20;46.50;;;;;;6179737;23;20044;-75
2023/05/05 00:47:42;;;;;;;2.10;1.20;;;15.10;46.80;;;;;;6154901;23;20093;-75
2023/05/05 00:50:09;;;;;;;3.13;1.55;;;15.10;47.00;;;;;;6180817;23;20013;-75
2023/05/05 00:52:37;;;;;;;1.60;1.05;;;15.10;47.40;;;;;;6181323;23;20009;-75
2023/05/05 00:55:04;;;;;;;1.65;1.20;;;15.00;47.60;;;;;;6180945;23;20048;-76
2023/05/05 00:57:31;;;;;;;2.17;1.33;;;15.00;47.80;;;;;;6154920;23;20017;-76
2023/05/05 00:59:58;;;;;;;2.92;0.90;;;15.00;48.10;;;;;;6180998;23;20013;-76
2023/05/05 01:02:24;;;;;;;3.67;1.20;;;15.00;48.40;;;;;;6180500;23;20140;-75
2023/05/05 01:04:51;;;;;;;2.25;1.30;;;15.00;48.10;;;;;;6154667;23;20015;-75
2023/05/05 01:07:47;;;;;;;2.13;1.40;;;15.00;48.00;;;;;;6155152;23;20009;-74
2023/05/05 01:10:31;;;;;;;2.00;1.30;;;15.00;48.40;;;;;;6139583;23;20013;-74
2023/05/05 01:13:22;;;;;;;4.10;1.70;;;15.00;48.60;;;;;;6154478;23;20790;-75
2023/05/05 01:16:03;;;;;;;4.68;1.38;;;14.90;49.10;;;;;;6173350;23;20028;-75
2023/05/05 01:19:07;;;;;;;3.13;1.48;;;14.90;49.10;;;;;;6208928;23;20020;-77
2023/05/05 01:21:40;;;;;;;2.97;1.38;;;14.90;49.10;;;;;;6012975;23;20025;-75
2023/05/05 01:24:24;;;;;;;2.20;1.20;;;14.90;49.40;;;;;;6060656;23;20048;-76
2023/05/05 01:27:18;;;;;;;6.63;1.58;;;14.90;49.40;;;;;;6060162;23;20083;-75
2023/05/05 01:30:02;;;;;;;5.20;1.98;;;14.90;49.40;;;;;;6060660;23;20065;-75
2023/05/05 01:32:35;;;;;;;8.70;1.55;;;14.80;49.40;;;;;;6060405;23;20015;-75
2023/05/05 01:35:08;;;;;;;2.83;1.48;;;14.80;49.40;;;;;;6060756;23;20019;-75
2023/05/05 01:38:03;;;;;;;2.00;1.20;;;14.80;49.40;;;;;;6060784;23;20023;-76
2023/05/05 01:40:32;;;;;;;4.10;1.63;;;14.80;49.40;;;;;;6022343;23;20409;-75
2023/05/05 01:43:00;;;;;;;6.07;1.58;;;14.70;49.50;;;;;;6060298;23;20033;-75
2023/05/05 01:45:30;;;;;;;2.50;1.30;;;14.70;49.70;;;;;;6060031;23;20034;-76
2023/05/05 01:47:57;;;;;;;3.08;1.40;;;14.70;49.90;;;;;;6060051;23;20030;-75
2023/05/05 01:50:27;;;;;;;6.28;2.28;;;14.70;49.80;;;;;;6036462;23;20493;-76
2023/05/05 01:52:54;;;;;;;4.53;1.67;;;14.70;50.00;;;;;;6059953;23;20025;-75
2023/05/05 01:55:24;;;;;;;2.90;1.60;;;14.70;49.90;;;;;;6060745;23;20037;-75
2023/05/05 01:57:50;;;;;;;3.35;1.40;;;14.70;50.10;;;;;;6089498;23;20020;-76
2023/05/05 02:00:18;;;;;;;1.77;1.45;;;14.70;50.00;;;;;;6208556;23;20321;-76
2023/05/05 02:02:48;;;;;;;3.60;1.60;;;14.70;50.10;;;;;;6183767;23;20020;-75
2023/05/05 02:05:15;;;;;;;6.30;1.65;;;14.60;50.30;;;;;;6210185;23;20219;-76
2023/05/05 02:07:43;;;;;;;4.20;1.50;;;14.60;50.30;;;;;;6210469;23;20470;-74
2023/05/05 02:10:11;;;;;;;4.38;1.75;;;14.60;50.50;;;;;;6209529;23;20001;-75
2023/05/05 02:12:41;;;;;;;3.88;1.90;;;14.60;50.80;;;;;;6210463;23;20021;-76
2023/05/05 02:15:10;;;;;;;3.55;1.60;;;14.60;51.00;;;;;;6208633;23;20033;-75
2023/05/05 02:17:39;;;;;;;1.83;1.40;;;14.60;51.00;;;;;;6208589;23;20020;-76
2023/05/05 02:20:08;;;;;;;2.20;1.50;;;14.50;50.80;;;;;;6210217;23;20682;-76
2023/05/05 02:22:34;;;;;;;2.30;1.52;;;14.60;50.60;;;;;;6184335;23;20314;-77
2023/05/05 02:25:00;;;;;;;3.70;1.75;;;14.60;50.50;;;;;;6210630;23;20017;-77
2023/05/05 02:27:26;;;;;;;2.35;1.70;;;14.60;50.20;;;;;;6209511;23;20031;-76
2023/05/05 02:29:58;;;;;;;4.25;1.70;;;14.60;50.10;;;;;;6210619;23;20540;-76
2023/05/05 02:32:38;;;;;;;2.75;1.70;;;14.60;50.00;;;;;;6210189;23;20016;-76
2023/05/05 02:35:19;;;;;;;2.38;1.83;;;14.50;50.00;;;;;;6183660;23;20020;-77
2023/05/05 02:37:53;;;;;;;5.70;2.10;;;14.50;49.90;;;;;;6208083;23;20020;-76
2023/05/05 02:40:25;;;;;;;4.97;1.77;;;14.50;49.90;;;;;;6159499;23;20032;-76
2023/05/05 02:42:57;;;;;;;3.60;1.88;;;14.60;49.90;;;;;;6182974;23;20020;-76
2023/05/05 02:45:28;;;;;;;7.25;2.60;;;14.60;49.80;;;;;;6159586;23;20419;-77
2023/05/05 02:47:54;;;;;;;5.15;2.03;;;14.60;49.70;;;;;;6208490;23;20131;-76
2023/05/05 02:50:22;;;;;;;3.35;1.95;;;14.60;49.60;;;;;;6208213;23;20134;-77
2023/05/05 02:53:00;;;;;;;4.43;2.20;;;14.60;49.70;;;;;;6206185;23;20013;-76
2023/05/05 02:55:42;;;;;;;5.05;2.50;;;14.60;49.60;;;;;;6183714;23;20039;-76
2023/05/05 02:58:33;;;;;;;4.13;2.45;;;14.60;49.50;;;;;;6210322;23;20352;-78
2023/05/05 03:01:25;;;;;;;4.95;2.33;;;14.70;49.50;;;;;;6183194;23;20364;-76
2023/05/05 03:04:05;;;;;;;4.97;2.38;;;14.60;49.30;;;;;;6208258;23;20579;-77
2023/05/05 03:06:40;;;;;;;4.25;2.20;;;14.70;49.20;;;;;;6208122;23;20020;-76
2023/05/05 03:09:14;;;;;;;4.35;2.05;;;14.70;49.10;;;;;;6208173;23;20020;-77
2023/05/05 03:11:48;;;;;;;4.43;1.95;;;14.70;48.90;;;;;;6208649;23;20091;-77
2023/05/05 03:14:18;;;;;;;4.38;1.90;;;14.70;48.80;;;;;;6208092;23;20095;-77
2023/05/05 03:16:48;;;;;;;8.18;2.35;;;14.70;48.60;;;;;;6180102;23;20009;-77
2023/05/05 03:19:17;;;;;;;4.85;1.63;;;14.80;48.70;;;;;;6179164;23;20375;-77
2023/05/05 03:21:44;;;;;;;4.32;2.22;;;14.80;48.50;;;;;;6153170;23;20017;-78
2023/05/05 03:24:15;;;;;;;2.80;1.63;;;14.80;48.50;;;;;;6179953;23;20021;-77
2023/05/05 03:26:44;;;;;;;2.90;1.67;;;14.80;48.40;;;;;;6180121;23;20025;-79
2023/05/05 03:29:11;;;;;;;4.70;1.67;;;14.80;48.40;;;;;;6178452;23;20766;-79
2023/05/05 03:31:39;;;;;;;3.78;1.60;;;14.80;48.30;;;;;;6153783;23;20352;-79
2023/05/05 03:34:06;;;;;;;4.03;1.40;;;14.80;48.20;;;;;;6179793;23;20443;-78
2023/05/05 03:36:39;;;;;;;1.85;1.60;;;14.90;48.20;;;;;;6177534;23;20425;-76
2023/05/05 03:39:09;;;;;;;4.68;1.45;;;14.90;48.20;;;;;;6153366;23;20452;-77
2023/05/05 03:41:35;;;;;;;8.00;1.50;;;14.90;48.20;;;;;;6177560;23;20025;-76
2023/05/05 03:44:03;;;;;;;2.03;1.38;;;15.00;48.60;;;;;;6153529;23;20087;-76
2023/05/05 03:46:29;;;;;;;6.40;1.60;;;15.00;48.50;;;;;;6129545;23;20013;-76
2023/05/05 03:48:56;;;;;;;2.10;1.25;;;15.00;48.50;;;;;;6153173;23;20033;-76
2023/05/05 03:51:24;;;;;;;2.33;1.20;;;15.00;48.30;;;;;;6177899;23;20025;-78
2023/05/05 03:53:50;;;;;;;4.18;1.55;;;15.00;48.20;;;;;;6153243;23;20480;-78
2023/05/05 03:56:16;;;;;;;2.40;1.52;;;15.00;48.30;;;;;;6152658;23;20016;-78
2023/05/05 03:58:42;;;;;;;5.93;1.70;;;15.00;48.30;;;;;;6128221;23;20019;-79
2023/05/05 04:01:08;;;;;;;2.38;1.42;;;15.10;48.40;;;;;;6129138;23;20021;-79
2023/05/05 04:03:34;;;;;;;3.40;1.48;;;15.20;48.30;;;;;;6130132;23;20028;-79
2023/05/05 04:06:01;;;;;;;3.60;1.20;;;15.40;48.20;;;;;;6179303;23;20017;-78
2023/05/05 04:08:28;;;;;;;1.92;1.38;;;15.70;48.10;;;;;;6154408;23;20021;-79
2023/05/05 04:10:56;;;;;;;8.00;1.65;;;16.00;47.80;;;;;;6153899;23;20636;-77
2023/05/05 04:13:23;;;;;;;1.73;1.30;;;16.20;47.30;;;;;;6180431;23;20065;-78
2023/05/05 04:15:49;;;;;;;5.70;1.30;;;16.50;46.90;;;;;;6168929;23;20024;-76
2023/05/05 04:18:16;;;;;;;1.27;1.00;;;16.80;46.50;;;;;;6154675;23;20091;-77
2023/05/05 04:20:42;;;;;;;2.80;1.38;;;17.10;45.90;;;;;;6155060;23;20017;-76
2023/05/05 04:23:09;;;;;;;2.22;1.20;;;17.30;45.60;;;;;;6179025;23;20371;-77
2023/05/05 04:25:36;;;;;;;2.35;0.80;;;17.60;45.40;;;;;;6153984;23;20112;-76
2023/05/05 04:28:03;;;;;;;2.22;0.88;;;17.80;45.10;;;;;;6178613;23;20476;-77
2023/05/05 04:30:30;;;;;;;1.02;0.90;;;17.90;44.80;;;;;;6129430;23;20107;-77
2023/05/05 04:32:56;;;;;;;0.70;0.70;;;18.00;44.50;;;;;;6177940;23;20109;-76
2023/05/05 04:35:22;;;;;;;1.33;1.10;;;18.20;44.30;;;;;;6153175;23;20025;-78
2023/05/05 04:37:49;;;;;;;0.88;0.80;;;18.30;44.20;;;;;;6153504;23;20009;-77
2023/05/05 04:40:15;;;;;;;1.70;0.90;;;18.40;43.90;;;;;;6180489;23;20671;-76
2023/05/05 04:42:41;;;;;;;1.48;0.70;;;18.50;43.90;;;;;;6154080;23;20104;-74
2023/05/05 04:45:08;;;;;;;2.30;0.90;;;18.70;43.60;;;;;;6180903;23;20198;-74
2023/05/05 04:47:38;;;;;;;1.20;0.93;;;18.90;43.30;;;;;;6178969;23;20029;-78
2023/05/05 04:50:06;;;;;;;2.45;0.90;;;19.10;43.20;;;;;;6152470;23;20020;-75
2023/05/05 04:52:32;;;;;;;1.08;0.77;;;19.40;43.00;;;;;;6192557;23;20014;-75
2023/05/05 04:54:58;;;;;;;2.60;0.85;;;19.60;42.80;;;;;;6153181;23;20024;-75
2023/05/05 04:57:24;;;;;;;1.02;0.90;;;19.80;42.70;;;;;;6153057;23;20053;-75
2023/05/05 04:59:52;;;;;;;1.80;0.60;;;20.10;42.50;;;;;;6179629;23;20365;-75
2023/05/05 05:02:18;;;;;;;4.47;0.90;;;20.20;42.20;;;;;;6152908;23;20013;-75
2023/05/05 05:04:44;;;;;;;0.90;0.60;;;20.40;42.20;;;;;;6177507;23;20020;-75
2023/05/05 05:07:10;;;;;;;1.20;0.50;;;20.60;41.90;;;;;;6153757;23;20480;-75
2023/05/05 05:09:37;;;;;;;1.88;0.77;;;20.70;41.80;;;;;;6152755;23;20437;-75
2023/05/05 05:12:04;;;;;;;2.17;0.77;;;20.80;41.70;;;;;;6152045;23;20023;-76
2023/05/05 05:14:38;;;;;;;1.73;0.68;;;21.00;41.60;;;;;;6178729;23;20024;-75
2023/05/05 05:17:05;;;;;;;1.67;0.60;;;21.10;41.60;;;;;;6152762;23;20028;-75
2023/05/05 05:19:32;;;;;;;2.05;0.65;;;21.20;41.50;;;;;;6153599;23;20016;-76
2023/05/05 05:21:58;;;;;;;3.30;0.70;;;21.30;41.50;;;;;;6152714;23;20488;-76
2023/05/05 05:24:25;;;;;;;2.85;0.90;;;21.50;41.40;;;;;;6177548;23;20031;-76
2023/05/05 05:26:52;;;;;;;2.17;0.90;;;21.60;41.20;;;;;;6152908;23;20383;-76
2023/05/05 05:29:19;;;;;;;3.58;0.68;;;21.70;41.10;;;;;;6177828;23;20330;-76
2023/05/05 05:31:46;;;;;;;1.77;0.60;;;21.90;41.00;;;;;;6177514;23;20012;-76
2023/05/05 05:34:12;;;;;;;1.35;0.80;;;22.00;40.80;;;;;;6153262;23;20035;-76
2023/05/05 05:36:39;;;;;;;5.55;0.68;;;22.20;40.60;;;;;;6127827;23;20013;-76
2023/05/05 05:39:05;;;;;;;0.50;0.50;;;22.40;40.60;;;;;;6177393;23;20032;-76
2023/05/05 05:41:32;;;;;;;1.33;0.50;;;22.50;40.40;;;;;;6177414;23;20017;-76
2023/05/05 05:43:58;;;;;;;1.15;0.60;;;22.60;40.30;;;;;;6177471;23;20016;-76
2023/05/05 05:46:24;;;;;;;2.05;0.60;;;22.60;40.40;;;;;;6153125;23;20391;-76
2023/05/05 05:48:51;;;;;;;3.45;0.50;;;22.60;40.40;;;;;;6177376;23;20107;-76
2023/05/05 05:51:18;;;;;;;4.78;0.98;;;22.60;40.30;;;;;;6177526;23;20468;-76
2023/05/05 05:53:44;;;;;;;0.75;0.40;;;22.80;40.30;;;;;;6152880;23;20017;-76
2023/05/05 05:56:10;;;;;;;1.10;0.52;;;22.90;40.10;;;;;;6177202;23;20416;-75
2023/05/05 05:58:36;;;;;;;1.05;0.40;;;23.10;40.00;;;;;;6153179;23;20017;-76
2023/05/05 06:01:03;;;;;;;0.65;0.40;;;23.30;39.90;;;;;;6176907;23;20016;-76
2023/05/05 06:03:30;;;;;;;0.90;0.70;;;23.20;39.80;;;;;;6176767;23;20136;-76
2023/05/05 06:05:57;;;;;;;0.65;0.40;;;23.10;40.00;;;;;;6177465;23;20025;-75
2023/05/05 06:08:25;;;;;;;0.65;0.50;;;22.90;40.20;;;;;;6176604;23;20032;-76
2023/05/05 06:10:52;;;;;;;1.92;0.70;;;22.70;40.30;;;;;;6176982;23;20017;-76
2023/05/05 06:13:20;;;;;;;2.05;0.70;;;22.60;40.50;;;;;;6177502;23;20019;-76
2023/05/05 06:15:49;;;;;;;4.47;0.77;;;22.50;40.40;;;;;;6186102;23;20071;-76
2023/05/05 06:18:15;;;;;;;8.18;0.70;;;22.30;40.30;;;;;;6181867;23;20083;-76
2023/05/05 06:20:42;;;;;;;8.82;0.73;;;22.20;39.80;;;;;;6208875;23;20024;-77
2023/05/05 06:23:09;;;;;;;6.00;0.90;;;22.10;39.60;;;;;;6182231;23;20142;-76
2023/05/05 06:25:40;;;;;;;5.93;0.88;;;21.90;39.50;;;;;;6181996;23;20036;-76
2023/05/05 06:28:06;;;;;;;5.22;0.82;;;21.80;39.40;;;;;;6206871;23;20411;-76
2023/05/05 06:30:32;;;;;;;4.72;0.77;;;21.70;39.40;;;;;;6208044;23;20020;-74
2023/05/05 06:32:58;;;;;;;4.30;0.80;;;21.60;39.50;;;;;;6207988;23;20021;-75
2023/05/05 06:35:24;;;;;;;5.60;0.80;;;21.40;39.50;;;;;;6208609;23;20019;-75
2023/05/05 06:37:50;;;;;;;13.50;1.50;;;21.30;39.60;;;;;;6208356;23;20012;-76
2023/05/05 06:40:16;;;;;;;6.95;1.48;;;21.20;39.70;;;;;;6182199;23;20074;-75
2023/05/05 06:42:42;;;;;;;8.30;1.00;;;21.00;39.90;;;;;;6206819;23;20024;-76
2023/05/05 06:45:14;;;;;;;9.02;1.20;;;20.90;40.10;;;;;;6182294;23;20195;-76
2023/05/05 06:47:41;;;;;;;9.50;1.20;;;20.80;40.30;;;;;;6181403;23;20024;-76
2023/05/05 06:50:07;;;;;;;17.60;1.90;;;20.70;40.30;;;;;;6208702;23;20023;-77
2023/05/05 06:52:33;;;;;;;15.15;1.40;;;20.60;40.40;;;;;;6208882;23;20012;-76
2023/05/05 06:54:59;;;;;;;10.80;1.38;;;20.50;40.50;;;;;;6181751;23;20017;-76
2023/05/05 06:57:25;;;;;;;5.68;1.10;;;20.40;40.40;;;;;;6181669;23;20048;-76
2023/05/05 06:59:52;;;;;;;3.42;1.40;;;20.30;40.40;;;;;;6208381;23;20024;-76
2023/05/05 07:02:18;;;;;;;6.95;0.90;;;20.20;40.60;;;;;;6207894;23;20071;-76
2023/05/05 07:04:45;;;;;;;5.45;1.15;;;20.10;40.70;;;;;;6208194;23;20016;-76
2023/05/05 07:07:11;;;;;;;7.60;0.90;;;20.10;40.80;;;;;;6208753;23;20099;-76
2023/05/05 07:09:37;;;;;;;4.85;0.70;;;20.00;40.90;;;;;;6208240;23;20021;-76
2023/05/05 07:12:03;;;;;;;5.88;1.45;;;19.90;41.00;;;;;;6205557;23;20039;-76
2023/05/05 07:14:29;;;;;;;7.07;2.30;;;19.90;41.00;;;;;;6203041;23;20019;-76
2023/05/05 07:16:55;;;;;;;5.82;1.75;;;19.90;41.10;;;;;;6149185;23;20110;-76
2023/05/05 07:19:21;;;;;;;5.85;1.60;;;19.90;41.00;;;;;;6175933;23;20464;-76
2023/05/05 07:21:47;;;;;;;5.22;1.60;;;19.90;41.10;;;;;;6175384;23;20013;-76
2023/05/05 07:24:13;;;;;;;4.22;1.20;;;19.90;41.00;;;;;;6174850;23;20099;-77
2023/05/05 07:26:39;;;;;;;5.65;1.48;;;19.90;40.90;;;;;;6174884;23;20020;-76
2023/05/05 07:29:05;;;;;;;5.82;0.98;;;19.90;40.90;;;;;;6175566;23;20021;-77
2023/05/05 07:31:32;;;;;;;9.95;1.15;;;20.00;40.80;;;;;;6171750;23;20075;-76
2023/05/05 07:33:58;;;;;;;4.97;0.95;;;20.10;40.70;;;;;;6175186;23;20029;-76
2023/05/05 07:36:23;;;;;;;2.88;0.98;;;20.10;40.70;;;;;;6175687;23;20024;-76
2023/05/05 07:38:49;;;;;;;5.68;0.95;;;20.20;40.40;;;;;;6178079;23;20104;-77
2023/05/05 07:41:17;;;;;;;5.53;0.90;;;20.20;40.60;;;;;;6176821;23;20100;-73
2023/05/05 07:43:43;;;;;;;6.47;1.00;;;20.30;40.40;;;;;;6176440;23;20407;-80
2023/05/05 07:46:09;;;;;;;8.68;1.15;;;20.40;40.50;;;;;;6154058;23;20009;-77
2023/05/05 07:48:35;;;;;;;3.50;1.00;;;20.40;40.20;;;;;;6126428;23;20029;-76
2023/05/05 07:51:01;;;;;;;109.95;12.82;;;20.30;40.00;;;;;;6151082;23;20037;-76
2023/05/05 07:53:28;;;;;;;101.25;12.45;;;20.10;40.20;;;;;;6175922;23;20087;-76
2023/05/05 07:55:54;;;;;;;40.08;7.32;;;20.00;39.90;;;;;;6175954;23;20009;-76
2023/05/05 07:58:20;;;;;;;32.45;5.22;;;19.80;40.30;;;;;;6177997;23;20465;-76
2023/05/05 08:00:48;;;;;;;131.48;17.52;;;19.60;40.50;;;;;;6177494;23;20031;-77
2023/05/05 08:03:13;;;;;;;95.53;12.80;;;19.40;41.30;;;;;;6151653;23;20099;-78
2023/05/05 08:05:39;;;;;;;44.78;7.40;;;19.30;42.00;;;;;;6176370;23;20562;-76
2023/05/05 08:08:05;;;;;;;22.40;4.95;;;19.10;42.30;;;;;;6177285;23;20373;-77
2023/05/05 08:10:31;;;;;;;44.33;5.80;;;19.10;43.20;;;;;;6126559;23;20448;-76
2023/05/05 08:12:57;;;;;;;34.00;4.25;;;19.10;42.60;;;;;;6177145;23;20024;-76
2023/05/05 08:15:23;;;;;;;22.13;2.50;;;18.90;43.10;;;;;;6176814;23;20025;-75
2023/05/05 08:17:51;;;;;;;16.15;2.70;;;18.80;42.00;;;;;;6176890;23;20021;-75
2023/05/05 08:20:18;;;;;;;31.83;3.83;;;18.80;42.10;;;;;;6175920;23;20053;-77
2023/05/05 08:22:45;;;;;;;18.65;2.90;;;18.70;41.80;;;;;;6176560;23;20016;-75
2023/05/05 08:25:12;;;;;;;13.48;2.53;;;18.50;41.80;;;;;;6177577;23;20100;-77
2023/05/05 08:27:39;;;;;;;12.93;2.33;;;18.30;42.00;;;;;;6150532;23;20027;-75
2023/05/05 08:30:06;;;;;;;6.28;1.67;;;18.20;42.30;;;;;;6172401;23;20025;-75
2023/05/05 08:32:32;;;;;;;7.35;1.60;;;18.00;42.50;;;;;;6150965;23;20492;-76
2023/05/05 08:35:00;;;;;;;5.88;1.27;;;18.00;42.70;;;;;;6178176;23;20036;-75
2023/05/05 08:37:26;;;;;;;5.45;1.20;;;17.90;43.20;;;;;;6180252;23;20092;-75
2023/05/05 08:39:52;;;;;;;9.15;1.83;;;17.70;43.50;;;;;;6179784;23;20040;-75
2023/05/05 08:42:18;;;;;;;14.05;2.50;;;17.60;43.50;;;;;;6179690;23;20104;-75
2023/05/05 08:44:44;;;;;;;8.02;1.70;;;17.50;43.40;;;;;;6153591;23;20072;-75
2023/05/05 08:47:13;;;;;;;24.38;2.42;;;17.40;43.30;;;;;;6153153;23;20025;-75
2023/05/05 08:49:44;;;;;;;15.50;1.70;;;17.30;44.10;;;;;;6180228;23;20008;-77
2023/05/05 08:52:14;;;;;;;8.82;1.48;;;17.30;44.20;;;;;;6179911;23;20104;-74
2023/05/05 08:54:47;;;;;;;8.15;1.45;;;17.30;44.30;;;;;;6128461;23;20017;-73
2023/05/05 08:57:18;;;;;;;8.30;1.70;;;17.30;44.90;;;;;;6179309;23;20025;-74
2023/05/05 08:59:44;;;;;;;4.55;1.42;;;17.10;45.50;;;;;;6153199;23;20025;-73
2023/05/05 09:02:12;;;;;;;4.80;1.30;;;17.00;45.90;;;;;;6179714;23;20118;-74
2023/05/05 09:04:38;;;;;;;4.70;1.33;;;17.00;45.70;;;;;;6153826;23;20120;-75
2023/05/05 09:07:04;;;;;;;2.72;1.10;;;17.00;45.90;;;;;;6179403;23;20036;-74
2023/05/05 09:09:30;;;;;;;5.53;1.25;;;16.90;46.10;;;;;;6179333;23;20017;-75
2023/05/05 09:11:58;;;;;;;5.35;1.27;;;16.90;45.70;;;;;;6153472;23;20017;-74
2023/05/05 09:14:24;;;;;;;2.15;1.00;;;16.80;45.70;;;;;;6153228;23;20392;-75
2023/05/05 09:16:50;;;;;;;2.97;1.10;;;16.70;45.50;;;;;;6152838;23;20009;-75
2023/05/05 09:19:16;;;;;;;3.72;1.10;;;16.70;45.10;;;;;;6182417;23;20016;-73
2023/05/05 09:21:48;;;;;;;3.50;1.20;;;16.60;45.20;;;;;;6179046;23;20017;-75
2023/05/05 09:24:14;;;;;;;2.05;1.00;;;16.70;45.20;;;;;;6174496;23;20017;-74
2023/05/05 09:26:42;;;;;;;4.60;1.10;;;16.60;44.90;;;;;;6149423;23;20527;-74
2023/05/05 09:29:08;;;;;;;2.38;1.00;;;16.50;44.80;;;;;;6175919;23;20017;-75
2023/05/05 09:31:36;;;;;;;3.55;1.52;;;16.50;44.80;;;;;;6176334;23;20063;-78
2023/05/05 09:34:13;;;;;;;5.25;1.30;;;16.30;44.90;;;;;;6125684;23;20025;-77
2023/05/05 09:36:44;;;;;;;3.30;1.65;;;16.20;44.80;;;;;;6174310;23;20024;-78
2023/05/05 09:39:10;;;;;;;2.78;1.20;;;16.20;44.70;;;;;;6176321;23;20075;-79
2023/05/05 09:41:40;;;;;;;5.95;1.35;;;16.20;44.70;;;;;;6149846;23;20032;-77
2023/05/05 09:44:07;;;;;;;288.73;33.75;;;16.20;44.70;;;;;;6176459;23;20072;-76
2023/05/05 09:46:33;;;;;;;159.95;22.25;;;16.10;45.30;;;;;;6176573;23;20008;-76
2023/05/05 09:49:13;;;;;;;153.88;23.17;;;16.00;45.10;;;;;;6176424;23;20021;-76
2023/05/05 09:51:39;;;;;;;73.50;11.05;;;16.00;44.90;;;;;;6174043;23;20075;-76
2023/05/05 09:54:05;;;;;;;49.20;7.35;;;16.00;44.70;;;;;;6175906;23;20083;-76
2023/05/05 09:56:41;;;;;;;27.67;5.38;;;16.10;44.60;;;;;;6179129;23;20372;-77
2023/05/05 09:59:08;;;;;;;19.35;3.83;;;16.10;44.70;;;;;;6178696;23;20020;-77
2023/05/05 10:01:34;;;;;;;13.43;2.58;;;16.20;44.30;;;;;;6153781;23;20008;-76
2023/05/05 10:04:01;;;;;;;10.13;2.30;;;16.10;44.00;;;;;;6179337;23;20105;-77
2023/05/05 10:06:45;;;;;;;9.00;2.65;;;16.10;44.00;;;;;;6178502;23;20395;-76
2023/05/05 10:09:12;;;;;;;10.32;2.35;;;16.10;43.90;;;;;;6178928;23;20078;-75
2023/05/05 10:11:41;;;;;;;13.18;2.72;;;16.10;43.90;;;;;;6177804;23;20024;-76
2023/05/05 10:14:07;;;;;;;11.95;2.33;;;16.10;43.80;;;;;;6177316;23;20419;-75
2023/05/05 10:16:35;;;;;;;13.10;2.05;;;16.10;44.10;;;;;;6179195;23;20047;-76
2023/05/05 10:19:03;;;;;;;8.80;2.03;;;16.00;44.20;;;;;;6178127;23;20017;-76
2023/05/05 10:21:34;;;;;;;11.57;2.20;;;16.00;44.30;;;;;;6178660;23;20021;-75
2023/05/05 10:24:12;;;;;;;13.32;2.45;;;15.90;44.30;;;;;;6180515;23;20024;-78
2023/05/05 10:26:43;;;;;;;8.63;2.08;;;15.90;43.70;;;;;;6128118;23;20013;-78
2023/05/05 10:29:38;;;;;;;4.85;1.30;;;16.00;44.20;;;;;;6152066;23;20071;-79
2023/05/05 10:32:11;;;;;;;6.88;1.40;;;15.90;43.40;;;;;;6087130;23;20373;-80
2023/05/05 10:34:56;;;;;;;11.68;1.75;;;15.90;43.20;;;;;;6061101;23;20010;-76
2023/05/05 10:37:22;;;;;;;9.68;1.70;;;15.90;43.10;;;;;;6084067;23;20022;-77
2023/05/05 10:39:51;;;;;;;8.25;1.80;;;15.80;43.40;;;;;;6059821;23;20018;-77
2023/05/05 10:42:20;;;;;;;8.20;1.70;;;15.70;43.60;;;;;;6084070;23;20113;-76
2023/05/05 10:44:47;;;;;;;6.28;1.30;;;15.80;43.60;;;;;;6084400;23;20105;-80
2023/05/05 10:47:15;;;;;;;3.97;1.40;;;15.70;43.60;;;;;;6083658;23;20446;-78
2023/05/05 10:50:16;;;;;;;5.90;1.48;;;15.70;43.70;;;;;;6060262;23;20840;-82
2023/05/05 10:53:16;;;;;;;4.88;1.50;;;15.70;43.90;;;;;;5951662;23;20020;-77
2023/05/05 10:56:15;;;;;;;2.83;1.25;;;15.70;44.00;;;;;;5996509;23;20288;-81
2023/05/05 10:58:41;;;;;;;1.38;1.25;;;15.70;44.00;;;;;;5998079;23;20019;-79
2023/05/05 11:01:08;;;;;;;3.65;1.48;;;15.60;44.00;;;;;;5998774;23;20015;-77
2023/05/05 11:03:34;;;;;;;2.78;1.17;;;15.60;43.70;;;;;;5998286;23;20067;-78
2023/05/05 11:06:03;;;;;;;3.17;1.10;;;15.50;43.40;;;;;;5974507;23;20597;-80
2023/05/05 11:08:30;;;;;;;7.68;1.20;;;15.50;43.50;;;;;;6014255;23;20026;-82
2023/05/05 11:10:56;;;;;;;3.88;1.38;;;15.60;43.50;;;;;;6058731;23;20541;-80
2023/05/05 11:13:23;;;;;;;4.95;1.20;;;15.60;43.60;;;;;;6059349;23;20052;-82
2023/05/05 11:15:53;;;;;;;4.68;3.75;;;15.50;43.60;;;;;;6053160;23;20031;-83
2023/05/05 11:18:35;;;;;;;7.07;2.67;;;15.50;43.90;;;;;;6087351;23;20101;-80
2023/05/05 11:21:06;;;;;;;6.53;2.40;;;15.30;44.20;;;;;;6086860;23;20019;-80
2023/05/05 11:23:32;;;;;;;3.90;1.90;;;15.40;44.00;;;;;;6087294;23;20030;-77
2023/05/05 11:25:59;;;;;;;10.27;2.33;;;15.40;44.00;;;;;;6104265;23;20009;-83
2023/05/05 11:28:30;;;;;;;8.35;1.90;;;15.40;44.00;;;;;;6178858;23;20028;-80
2023/05/05 11:30:56;;;;;;;8.02;2.15;;;15.40;43.90;;;;;;6178213;23;20468;-83
2023/05/05 11:33:35;;;;;;;8.75;2.05;;;15.30;43.90;;;;;;6178516;23;20016;-79
2023/05/05 11:36:03;;;;;;;13.68;1.95;;;15.30;44.00;;;;;;6152495;23;20021;-79
2023/05/05 11:38:59;;;;;;;6.47;1.65;;;15.20;43.60;;;;;;6178513;23;20024;-78
2023/05/05 11:41:25;;;;;;;6.95;1.40;;;15.20;43.30;;;;;;6151726;23;20017;-79
2023/05/05 11:44:07;;;;;;;6.45;1.33;;;15.20;43.50;;;;;;6151985;23;20036;-81
2023/05/05 11:46:33;;;;;;;6.78;1.52;;;15.20;43.40;;;;;;6178271;23;20009;-78
2023/05/05 11:48:59;;;;;;;4.13;1.20;;;15.20;43.30;;;;;;6177730;23;20108;-82
2023/05/05 11:51:25;;;;;;;8.45;1.80;;;15.10;43.20;;;;;;6178191;23;20048;-78
2023/05/05 11:53:51;;;;;;;3.38;1.20;;;15.10;43.10;;;;;;6152411;23;20510;-80
2023/05/05 11:56:19;;;;;;;1.70;1.02;;;15.00;43.20;;;;;;6150767;23;20017;-80
2023/05/05 11:58:45;;;;;;;3.58;1.38;;;15.00;43.20;;;;;;6177749;23;20045;-79
2023/05/05 12:01:12;;;;;;;11.50;1.48;;;15.00;43.10;;;;;;6178643;23;20009;-83
2023/05/05 12:03:39;;;;;;;8.95;1.67;;;15.00;43.10;;;;;;6178411;23;20017;-80
2023/05/05 12:06:06;;;;;;;6.22;1.52;;;15.10;42.80;;;;;;6177785;23;20025;-78
2023/05/05 12:08:39;;;;;;;9.30;1.33;;;15.00;42.70;;;;;;6178120;23;20075;-80
2023/05/05 12:11:07;;;;;;;9.77;1.40;;;15.00;42.60;;;;;;6178293;23;20471;-81
2023/05/05 12:13:33;;;;;;;7.88;1.50;;;14.90;42.60;;;;;;6178735;23;20040;-78
2023/05/05 12:16:10;;;;;;;4.55;1.77;;;14.90;42.70;;;;;;6168208;23;20029;-80
2023/05/05 12:18:36;;;;;;;10.90;1.25;;;14.90;42.70;;;;;;6178204;23;20013;-80
2023/05/05 12:21:18;;;;;;;9.85;2.10;;;14.90;42.80;;;;;;6176782;23;20027;-80
2023/05/05 12:23:44;;;;;;;3.03;1.80;;;14.80;42.60;;;;;;6153194;23;20088;-78
2023/05/05 12:26:30;;;;;;;1.98;1.15;;;14.80;42.60;;;;;;6179462;23;20024;-77
2023/05/05 12:28:57;;;;;;;;;;;14.80;42.60;;;;;;6180191;23;20013;-77
2023/05/05 12:31:36;;;;;;;35.88;4.72;;;14.80;42.40;;;;;;6180416;23;19985;-78
2023/05/05 12:34:03;;;;;;;22.17;3.75;;;14.80;42.50;;;;;;6179584;23;20384;-77
2023/05/05 12:36:33;;;;;;;26.20;4.50;;;14.80;43.20;;;;;;6178126;23;20024;-78
2023/05/05 12:38:58;;;;;;;17.30;2.58;;;14.80;43.10;;;;;;6179562;23;20100;-79
2023/05/05 12:41:24;;;;;;;53.75;7.35;;;14.80;43.00;;;;;;6180728;23;20032;-79
2023/05/05 12:43:55;;;;;;;41.65;6.00;;;14.90;43.20;;;;;;6153897;23;20012;-79
2023/05/05 12:46:21;;;;;;;24.08;4.38;;;14.90;43.00;;;;;;6179707;23;20013;-79
2023/05/05 12:48:59;;;;;;;30.60;5.18;;;14.90;42.80;;;;;;6179156;23;20462;-80
2023/05/05 12:51:25;;;;;;;34.88;5.25;;;14.90;42.80;;;;;;6178201;23;20032;-74
2023/05/05 12:54:02;;;;;;;16.90;4.10;;;15.00;43.00;;;;;;6178962;23;20459;-73
2023/05/05 12:56:34;;;;;;;13.88;3.22;;;15.00;47.10;;;;;;6179607;23;20017;-74